createdAt,value
2022-09-06T00:04:02.366Z,16.46
2022-09-06T00:09:04.198Z,16.47
2022-09-06T00:14:06.046Z,16.46
2022-09-06T00:19:07.792Z,16.36
2022-09-06T00:24:09.743Z,16.33
2022-09-06T00:29:11.481Z,16.28
2022-09-06T00:34:13.180Z,16.33
2022-09-06T00:39:14.894Z,16.21
2022-09-06T00:44:16.664Z,16.21
2022-09-06T00:49:37.925Z,16.32
2022-09-06T00:54:41.160Z,16.25
2022-09-06T00:59:45.700Z,16.31
2022-09-06T01:04:51.135Z,16.22
2022-09-06T01:10:37.139Z,16.28
2022-09-06T01:16:33.265Z,16.23
2022-09-06T01:22:22.697Z,16.08
2022-09-06T01:27:51.337Z,16.10
2022-09-06T01:33:25.352Z,16.06
2022-09-06T01:38:27.971Z,15.79
2022-09-06T01:43:36.952Z,15.48
2022-09-06T01:49:11.585Z,15.72
2022-09-06T01:55:02.877Z,15.54
2022-09-06T02:00:10.103Z,15.66
2022-09-06T02:05:41.387Z,15.69
2022-09-06T02:11:03.525Z,15.53
2022-09-06T02:16:09.436Z,15.45
2022-09-06T02:21:16.954Z,15.59
2022-09-06T02:26:27.061Z,15.48
2022-09-06T02:31:52.915Z,15.48
2022-09-06T02:36:55.753Z,15.42
2022-09-06T02:41:58.697Z,15.39
2022-09-06T02:47:01.468Z,15.18
2022-09-06T02:52:03.561Z,15.22
2022-09-06T02:57:05.316Z,15.20
2022-09-06T03:02:07.051Z,15.08
2022-09-06T03:07:08.770Z,15.17
2022-09-06T03:12:10.490Z,15.23
2022-09-06T03:17:12.218Z,15.28
2022-09-06T03:22:13.916Z,15.20
2022-09-06T03:27:15.599Z,15.14
2022-09-06T03:32:17.299Z,15.19
2022-09-06T03:37:19.529Z,15.18
2022-09-06T03:42:21.810Z,14.98
2022-09-06T03:47:23.533Z,14.90
2022-09-06T03:52:25.264Z,14.73
2022-09-06T03:57:26.972Z,14.69
2022-09-06T04:02:28.792Z,14.47
2022-09-06T04:07:30.539Z,14.49
2022-09-06T04:12:32.264Z,14.56
2022-09-06T04:17:35.314Z,14.51
2022-09-06T04:22:36.999Z,14.40
2022-09-06T04:27:38.669Z,14.46
2022-09-06T04:32:40.753Z,14.43
2022-09-06T04:37:42.496Z,14.26
2022-09-06T04:42:44.188Z,14.19
2022-09-06T04:47:45.946Z,14.20
2022-09-06T04:52:47.670Z,14.40
2022-09-06T04:57:51.278Z,14.41
2022-09-06T05:02:53.373Z,14.44
2022-09-06T05:07:56.673Z,14.42
2022-09-06T05:12:58.405Z,14.45
2022-09-06T05:18:06.600Z,14.67
2022-09-06T05:23:08.933Z,14.65
2022-09-06T05:28:10.637Z,14.66
2022-09-06T05:33:20.481Z,14.78
2022-09-06T05:38:22.234Z,15.47
2022-09-06T05:43:24.006Z,15.86
2022-09-06T05:48:25.713Z,16.19
2022-09-06T05:53:27.450Z,15.87
2022-09-06T05:58:29.176Z,16.14
2022-09-06T06:03:31.044Z,16.26
2022-09-06T06:08:32.719Z,16.31
2022-09-06T06:13:39.292Z,16.13
2022-09-06T06:18:41.483Z,16.26
2022-09-06T06:23:47.752Z,16.33
2022-09-06T06:28:49.525Z,16.56
2022-09-06T06:33:51.473Z,16.71
2022-09-06T06:38:55.353Z,16.18
2022-09-06T06:44:01.892Z,16.25
2022-09-06T06:49:04.778Z,16.02
2022-09-06T06:54:06.721Z,16.81
2022-09-06T06:59:08.564Z,17.10
2022-09-06T07:04:12.146Z,18.88
2022-09-06T07:09:13.812Z,18.04
2022-09-06T07:14:19.349Z,18.10
2022-09-06T07:24:42.735Z,19.41
2022-09-06T07:29:44.472Z,18.60
2022-09-06T07:34:46.199Z,19.87
2022-09-06T07:39:48.327Z,19.93
2022-09-06T07:44:50.061Z,19.69
2022-09-06T07:55:13.476Z,19.91
2022-09-06T08:00:15.398Z,21.85
2022-09-06T08:10:38.859Z,20.31
2022-09-06T08:15:41.693Z,20.19
2022-09-06T08:20:43.506Z,21.50
2022-09-06T08:25:45.189Z,20.66
2022-09-06T08:30:46.875Z,18.88
2022-09-06T08:35:59.886Z,18.42
2022-09-06T08:41:11.319Z,18.06
2022-09-06T08:46:13.228Z,18.61
2022-09-06T08:51:38.618Z,18.41
2022-09-06T08:57:02.118Z,19.51
2022-09-06T09:02:20.186Z,19.99
2022-09-06T09:07:47.929Z,21.13
2022-09-06T09:12:50.633Z,20.50
2022-09-06T09:17:54.258Z,21.07
2022-09-06T09:22:56.233Z,20.25
2022-09-06T09:27:58.918Z,20.26
2022-09-06T09:33:00.612Z,19.63
2022-09-06T09:38:19.058Z,19.73
2022-09-06T09:43:29.839Z,19.15
2022-09-06T09:48:31.769Z,19.02
2022-09-06T09:53:33.467Z,18.82
2022-09-06T09:58:37.267Z,19.20
2022-09-06T10:09:35.373Z,19.61
2022-09-06T10:14:48.945Z,19.88
2022-09-06T10:19:50.696Z,19.50
2022-09-06T10:25:37.992Z,19.10
2022-09-06T10:31:13.209Z,19.40
2022-09-06T10:36:24.916Z,19.41
2022-09-06T10:42:09.406Z,19.50
2022-09-06T10:47:15.745Z,19.46
2022-09-06T10:52:29.347Z,19.67
2022-09-06T11:09:41.485Z,20.18
2022-09-06T11:14:43.316Z,20.38
2022-09-06T11:20:22.653Z,20.17
2022-09-06T11:25:54.090Z,20.02
2022-09-06T11:30:58.773Z,20.07
2022-09-06T11:36:48.208Z,19.98
2022-09-06T11:41:49.917Z,19.90
2022-09-06T11:46:51.482Z,20.12
2022-09-06T11:51:53.862Z,20.05
2022-09-06T11:57:11.292Z,20.04
2022-09-06T12:02:41.166Z,20.04
2022-09-06T12:08:10.992Z,20.28
2022-09-06T12:13:47.557Z,20.29
2022-09-06T12:18:49.088Z,20.34
2022-09-06T12:23:50.847Z,20.46
2022-09-06T12:28:53.631Z,20.35
2022-09-06T12:33:58.236Z,20.54
2022-09-06T12:39:10.268Z,20.61
2022-09-06T12:44:16.173Z,20.57
2022-09-06T12:49:23.527Z,20.68
2022-09-06T12:54:28.861Z,20.79
2022-09-06T12:59:32.030Z,20.96
2022-09-06T13:04:50.424Z,20.72
2022-09-06T13:09:56.015Z,20.80
2022-09-06T13:15:25.169Z,20.94
2022-09-06T13:20:30.523Z,21.21
2022-09-06T13:25:32.324Z,21.12
2022-09-06T13:30:45.840Z,21.13
2022-09-06T13:36:08.231Z,21.15
2022-09-06T13:41:25.049Z,21.25
2022-09-06T13:46:27.902Z,21.27
2022-09-06T13:51:29.938Z,21.41
2022-09-06T13:56:32.022Z,21.97
2022-09-06T14:01:34.410Z,21.83
2022-09-06T14:06:36.924Z,21.84
2022-09-06T14:11:39.096Z,21.50
2022-09-06T14:16:40.823Z,21.61
2022-09-06T14:21:43.278Z,21.44
2022-09-06T14:26:46.365Z,21.40
2022-09-06T14:31:48.926Z,21.53
2022-09-06T14:36:50.591Z,21.49
2022-09-06T14:41:52.315Z,21.49
2022-09-06T14:46:54.574Z,21.24
2022-09-06T14:51:56.378Z,21.40
2022-09-06T14:56:58.152Z,21.40
2022-09-06T15:02:00.092Z,21.39
2022-09-06T15:07:01.878Z,21.31
2022-09-06T15:12:04.185Z,21.18
2022-09-06T15:17:08.779Z,21.25
2022-09-06T15:22:10.533Z,21.21
2022-09-06T15:27:12.438Z,21.27
2022-09-06T15:32:14.130Z,20.98
2022-09-06T15:37:15.804Z,20.97
2022-09-06T15:42:17.854Z,20.88
2022-09-06T15:47:19.609Z,20.85
2022-09-06T15:52:21.359Z,20.86
2022-09-06T15:57:23.108Z,20.90
2022-09-06T16:02:24.941Z,20.82
2022-09-06T16:07:27.007Z,20.81
2022-09-06T16:12:28.736Z,20.89
2022-09-06T16:17:31.245Z,20.86
2022-09-06T16:22:33.045Z,20.87
2022-09-06T16:27:34.744Z,20.78
2022-09-06T16:32:36.460Z,20.72
2022-09-06T16:37:38.183Z,20.87
2022-09-06T16:42:59.585Z,20.84
2022-09-06T16:48:01.347Z,20.80
2022-09-06T16:53:03.388Z,20.60
2022-09-06T16:58:05.126Z,20.68
2022-09-06T17:03:07.852Z,20.60
2022-09-06T17:08:10.029Z,20.51
2022-09-06T17:13:12.833Z,20.46
2022-09-06T17:18:14.518Z,20.42
2022-09-06T17:23:19.639Z,20.33
2022-09-06T17:28:23.377Z,20.29
2022-09-06T17:33:25.204Z,20.22
2022-09-06T17:38:26.935Z,20.18
2022-09-06T17:43:29.128Z,20.13
2022-09-06T17:48:30.902Z,20.11
2022-09-06T17:53:33.770Z,20.13
2022-09-06T17:58:37.093Z,20.06
2022-09-06T18:03:41.634Z,20.07
2022-09-06T18:08:44.893Z,20.03
2022-09-06T18:13:47.560Z,19.92
2022-09-06T18:18:56.831Z,19.97
2022-09-06T18:23:58.846Z,19.90
2022-09-06T18:29:00.713Z,19.86
2022-09-06T18:34:03.140Z,19.79
2022-09-06T18:39:06.033Z,19.81
2022-09-06T18:44:08.565Z,19.74
2022-09-06T18:49:11.184Z,19.67
2022-09-06T18:54:14.302Z,19.64
2022-09-06T18:59:17.361Z,19.62
2022-09-06T19:04:19.085Z,19.53
2022-09-06T19:09:21.313Z,19.54
2022-09-06T19:14:23.207Z,19.47
2022-09-06T19:19:25.626Z,19.42
2022-09-06T19:24:27.368Z,19.42
2022-09-06T19:29:29.175Z,19.42
2022-09-06T19:34:30.898Z,19.32
2022-09-06T19:39:36.983Z,19.30
2022-09-06T19:44:39.174Z,19.31
2022-09-06T19:49:40.994Z,19.31
2022-09-06T19:54:43.260Z,19.21
2022-09-06T19:59:45.070Z,19.17
2022-09-06T20:04:46.867Z,19.14
2022-09-06T20:09:52.434Z,19.07
2022-09-06T20:14:54.392Z,19.03
2022-09-06T20:19:56.130Z,19.00
2022-09-06T20:24:57.869Z,18.95
2022-09-06T20:29:59.779Z,18.86
2022-09-06T20:35:01.518Z,18.75
2022-09-06T20:40:04.696Z,18.72
2022-09-06T20:45:07.238Z,18.74
2022-09-06T20:50:09.725Z,18.65
2022-09-06T20:55:11.489Z,18.70
2022-09-06T21:00:14.635Z,18.64
2022-09-06T21:05:16.455Z,18.55
2022-09-06T21:10:18.194Z,18.55
2022-09-06T21:15:19.912Z,18.53
2022-09-06T21:20:21.679Z,18.48
2022-09-06T21:25:23.603Z,18.48
2022-09-06T21:30:25.666Z,18.40
2022-09-06T21:35:27.338Z,18.43
2022-09-06T21:40:29.077Z,18.37
2022-09-06T21:45:30.884Z,18.32
2022-09-06T21:50:33.577Z,18.25
2022-09-06T21:55:35.277Z,18.29
2022-09-06T22:00:38.396Z,18.31
2022-09-06T22:05:40.150Z,18.19
2022-09-06T22:10:41.984Z,18.08
2022-09-06T22:15:44.229Z,18.13
2022-09-06T22:20:45.937Z,18.01
2022-09-06T22:25:47.680Z,18.01
2022-09-06T22:30:49.422Z,18.01
2022-09-06T22:35:51.790Z,17.94
2022-09-06T22:40:57.124Z,17.71
2022-09-06T22:46:11.144Z,17.75
2022-09-06T22:51:12.905Z,17.71
2022-09-06T22:56:14.645Z,17.68
2022-09-06T23:01:17.412Z,17.64
2022-09-06T23:06:19.361Z,17.65
2022-09-06T23:11:21.210Z,17.62
2022-09-06T23:16:23.015Z,17.60
2022-09-06T23:21:26.549Z,17.61
2022-09-06T23:26:31.949Z,17.58
2022-09-06T23:31:34.783Z,17.46
2022-09-06T23:36:36.634Z,17.51
2022-09-06T23:41:38.330Z,17.41
2022-09-06T23:46:40.099Z,17.41
2022-09-06T23:51:42.273Z,17.46
2022-09-06T23:56:43.974Z,17.37
